Airport ID:KJWN
Update Time (UTC):31/10/2020 17:07
Wind Speed (Knots):3
Wind Direction (Magnetic):200
Temperature (°C):15
Dew Point (°C):6
Humidity (%):53
Altimeter (inHg):30.29
Density Altitude (Feet):
Visibility:10+
Clouds (Hundreds of feet):CLR
Present Weather:
METAR:METAR KJWN 311705Z AUTO 00000KT 10SM CLR 15/06 A3029 RMK A01

The data displayed is for advisory purposes only and is not to be used for flight planning or operations.